createdAt,value
2018-08-31T00:00:44.070Z,6.60
2018-08-31T00:05:56.600Z,6.25
2018-08-31T00:11:11.688Z,6.55
2018-08-31T00:16:16.559Z,6.53
2018-08-31T00:21:20.608Z,6.92
2018-08-31T00:26:35.988Z,7.37
2018-08-31T00:34:01.697Z,6.78
2018-08-31T00:42:25.344Z,7.83
2018-08-31T00:47:29.524Z,6.95
2018-08-31T00:52:33.681Z,6.72
2018-08-31T00:57:37.960Z,6.85
2018-08-31T01:02:43.146Z,7.22
2018-08-31T01:07:47.700Z,7.03
2018-08-31T01:12:53.054Z,6.15
2018-08-31T01:17:57.198Z,7.10
2018-08-31T01:23:01.995Z,6.53
2018-08-31T01:28:06.165Z,7.03
2018-08-31T01:33:10.309Z,8.38
2018-08-31T01:38:14.553Z,8.15
2018-08-31T01:43:18.816Z,8.13
2018-08-31T01:48:23.077Z,9.20
2018-08-31T01:53:29.191Z,8.60
2018-08-31T01:58:34.364Z,8.63
2018-08-31T02:03:38.619Z,8.08
2018-08-31T02:08:48.077Z,8.15
2018-08-31T02:13:52.174Z,8.20
2018-08-31T02:18:56.530Z,8.68
2018-08-31T02:24:01.259Z,7.92
2018-08-31T02:29:05.507Z,7.70
2018-08-31T02:34:09.843Z,8.23
2018-08-31T02:39:14.014Z,8.40
2018-08-31T02:44:18.141Z,8.80
2018-08-31T02:49:22.276Z,8.55
2018-08-31T02:54:26.407Z,8.50
2018-08-31T02:59:30.698Z,10.08
2018-08-31T03:04:34.916Z,10.03
2018-08-31T03:09:39.096Z,9.70
2018-08-31T03:14:43.443Z,9.85
2018-08-31T03:19:48.288Z,9.05
2018-08-31T03:24:52.420Z,9.73
2018-08-31T03:29:56.559Z,9.50
2018-08-31T03:35:00.791Z,9.63
2018-08-31T03:40:05.504Z,8.83
2018-08-31T03:45:09.663Z,9.43
2018-08-31T03:50:13.735Z,8.83
2018-08-31T03:55:17.994Z,9.18
2018-08-31T04:00:22.137Z,8.73
2018-08-31T04:05:26.299Z,8.88
2018-08-31T04:10:30.474Z,8.35
2018-08-31T04:15:34.685Z,8.43
2018-08-31T04:20:39.597Z,9.28
2018-08-31T04:25:43.795Z,9.78
2018-08-31T04:30:47.962Z,9.43
2018-08-31T04:35:52.055Z,10.05
2018-08-31T04:40:56.164Z,11.33
2018-08-31T04:46:00.329Z,12.40
2018-08-31T04:51:04.768Z,12.80
2018-08-31T04:56:09.849Z,12.65
2018-08-31T05:01:15.698Z,13.08
2018-08-31T05:06:20.338Z,12.20
2018-08-31T05:11:29.159Z,13.30
2018-08-31T05:16:34.040Z,13.32
2018-08-31T05:21:38.113Z,12.58
2018-08-31T05:26:42.210Z,13.30
2018-08-31T05:31:46.329Z,14.33
2018-08-31T05:36:50.488Z,15.48
2018-08-31T05:41:54.623Z,13.85
2018-08-31T05:46:58.787Z,14.20
2018-08-31T05:52:03.104Z,15.38
2018-08-31T05:57:07.314Z,12.80
2018-08-31T06:02:11.563Z,12.85
2018-08-31T06:07:15.825Z,13.55
2018-08-31T06:12:20.789Z,13.22
2018-08-31T06:17:24.998Z,12.53
2018-08-31T06:22:29.120Z,14.00
2018-08-31T06:27:33.476Z,13.75
2018-08-31T06:32:38.562Z,13.30
2018-08-31T06:37:42.979Z,13.05
2018-08-31T06:42:47.465Z,13.88
2018-08-31T06:47:51.688Z,13.48
2018-08-31T06:52:55.887Z,13.93
2018-08-31T06:58:00.056Z,13.15
2018-08-31T07:03:04.233Z,12.15
2018-08-31T07:08:09.570Z,13.15
2018-08-31T07:13:13.635Z,14.55
2018-08-31T07:18:17.777Z,12.43
2018-08-31T07:23:21.976Z,12.82
2018-08-31T07:28:26.129Z,12.82
2018-08-31T07:33:30.197Z,12.37
2018-08-31T07:38:34.411Z,11.65
2018-08-31T07:43:38.438Z,12.15
2018-08-31T07:48:42.489Z,12.40
2018-08-31T07:53:46.811Z,11.35
2018-08-31T07:58:50.859Z,11.57
2018-08-31T08:03:55.073Z,11.00
2018-08-31T08:08:59.296Z,10.72
2018-08-31T08:14:03.544Z,10.78
2018-08-31T08:19:07.628Z,11.48
2018-08-31T08:24:11.957Z,9.68
2018-08-31T08:29:16.266Z,11.50
2018-08-31T08:34:20.391Z,9.95
2018-08-31T08:39:24.573Z,10.05
2018-08-31T08:44:28.836Z,10.25
2018-08-31T08:49:33.149Z,11.90
2018-08-31T08:54:37.337Z,10.85
2018-08-31T08:59:41.449Z,10.20
2018-08-31T09:04:46.232Z,10.25
2018-08-31T09:09:50.568Z,9.05
2018-08-31T09:14:54.688Z,8.88
2018-08-31T09:19:58.916Z,9.03
2018-08-31T09:25:03.219Z,8.78
2018-08-31T09:30:11.550Z,8.15
2018-08-31T09:35:15.757Z,7.65
2018-08-31T09:40:19.972Z,9.08
2018-08-31T09:45:24.067Z,7.70
2018-08-31T09:50:29.114Z,7.80
2018-08-31T09:55:33.211Z,9.55
2018-08-31T10:00:42.707Z,9.00
2018-08-31T10:05:57.696Z,7.92
2018-08-31T10:11:01.905Z,8.10
2018-08-31T10:16:06.475Z,8.15
2018-08-31T10:21:10.569Z,7.25
2018-08-31T10:26:21.437Z,7.72
2018-08-31T10:31:25.753Z,8.23
2018-08-31T10:36:29.854Z,8.63
2018-08-31T10:41:33.877Z,8.55
2018-08-31T10:46:39.470Z,9.25
2018-08-31T10:51:43.804Z,9.90
2018-08-31T10:56:48.728Z,12.18
2018-08-31T11:01:52.930Z,11.33
2018-08-31T11:06:57.895Z,10.75
2018-08-31T11:12:02.048Z,9.78
2018-08-31T11:17:06.353Z,10.60
2018-08-31T11:22:10.594Z,11.55
2018-08-31T11:27:14.677Z,11.38
2018-08-31T11:32:19.627Z,11.70
2018-08-31T11:37:23.812Z,10.63
2018-08-31T11:42:27.903Z,11.22
2018-08-31T11:47:32.346Z,10.38
2018-08-31T11:52:36.659Z,11.18
2018-08-31T11:57:40.890Z,10.68
2018-08-31T12:02:45.127Z,9.70
2018-08-31T12:08:52.202Z,9.70
2018-08-31T12:13:56.446Z,9.13
2018-08-31T12:19:00.765Z,9.00
2018-08-31T12:24:04.920Z,9.73
2018-08-31T12:29:09.058Z,9.65
2018-08-31T12:34:13.717Z,9.25
2018-08-31T12:39:17.917Z,8.98
2018-08-31T12:44:22.212Z,10.00
2018-08-31T12:49:26.374Z,8.80
2018-08-31T12:54:30.630Z,9.20
2018-08-31T12:59:35.439Z,8.23
2018-08-31T13:04:39.484Z,9.75
2018-08-31T13:09:43.971Z,9.25
2018-08-31T13:14:48.193Z,9.10
2018-08-31T13:19:52.385Z,9.13
2018-08-31T13:24:56.521Z,7.87
2018-08-31T13:30:00.759Z,8.15
2018-08-31T13:35:04.877Z,8.95
2018-08-31T13:40:08.952Z,8.45
2018-08-31T13:45:13.030Z,7.60
2018-08-31T13:50:17.165Z,8.40
2018-08-31T13:55:21.240Z,8.50
2018-08-31T14:00:25.355Z,7.45
2018-08-31T14:05:29.467Z,7.55
2018-08-31T14:10:34.220Z,5.92
2018-08-31T14:15:38.336Z,5.72
2018-08-31T14:20:42.468Z,5.30
2018-08-31T14:25:46.764Z,5.20
2018-08-31T14:30:50.797Z,4.78
2018-08-31T14:35:54.928Z,5.12
2018-08-31T14:40:59.058Z,4.65
2018-08-31T14:46:03.741Z,5.35
2018-08-31T14:51:07.863Z,4.78
2018-08-31T14:56:13.235Z,5.92
2018-08-31T15:01:17.477Z,5.10
2018-08-31T15:06:22.129Z,5.92
2018-08-31T15:11:26.384Z,5.70
2018-08-31T15:16:30.492Z,5.58
2018-08-31T15:21:34.576Z,7.53
2018-08-31T15:26:38.922Z,6.17
2018-08-31T15:31:43.102Z,7.37
2018-08-31T15:36:47.823Z,7.17
2018-08-31T15:41:51.982Z,7.50
2018-08-31T15:46:56.144Z,7.58
2018-08-31T15:52:00.285Z,7.67
2018-08-31T15:57:04.498Z,7.78
2018-08-31T16:02:09.633Z,8.00
2018-08-31T16:07:13.939Z,8.05
2018-08-31T16:12:19.001Z,8.63
2018-08-31T16:17:23.075Z,8.13
2018-08-31T16:22:27.195Z,9.33
2018-08-31T16:27:31.432Z,9.30
2018-08-31T16:32:35.546Z,9.15
2018-08-31T16:37:39.661Z,9.10
2018-08-31T16:42:43.919Z,10.15
2018-08-31T16:47:48.682Z,9.35
2018-08-31T16:52:52.893Z,9.45
2018-08-31T16:57:57.541Z,10.38
2018-08-31T17:03:01.675Z,12.47
2018-08-31T17:08:05.802Z,15.30
2018-08-31T17:13:09.939Z,9.35
2018-08-31T17:18:14.061Z,9.50
2018-08-31T17:23:18.261Z,10.03
2018-08-31T17:28:27.717Z,9.70
2018-08-31T17:33:37.184Z,9.85
2018-08-31T17:38:41.324Z,10.32
2018-08-31T17:43:45.454Z,10.15
2018-08-31T17:48:50.320Z,10.03
2018-08-31T17:53:54.551Z,9.90
2018-08-31T17:58:58.716Z,10.25
2018-08-31T18:04:02.935Z,10.03
2018-08-31T18:09:07.823Z,10.80
2018-08-31T18:14:11.959Z,10.28
2018-08-31T18:19:16.086Z,9.33
2018-08-31T18:24:20.325Z,11.33
2018-08-31T18:29:25.287Z,10.60
2018-08-31T18:34:29.496Z,9.95
2018-08-31T18:39:33.821Z,10.20
2018-08-31T18:44:38.051Z,9.80
2018-08-31T18:49:42.343Z,9.23
2018-08-31T18:54:46.431Z,10.32
2018-08-31T18:59:50.493Z,10.55
2018-08-31T19:04:54.801Z,10.38
2018-08-31T19:09:58.964Z,9.60
2018-08-31T19:15:03.162Z,11.08
2018-08-31T19:20:07.301Z,9.80
2018-08-31T19:25:12.991Z,10.98
2018-08-31T19:30:17.527Z,11.18
2018-08-31T19:35:21.998Z,10.50
2018-08-31T19:40:26.136Z,11.03
2018-08-31T19:45:30.899Z,10.58
2018-08-31T19:50:35.162Z,11.05
2018-08-31T19:55:39.299Z,11.68
2018-08-31T20:00:43.410Z,10.63
2018-08-31T20:05:47.819Z,12.60
2018-08-31T20:10:52.002Z,11.08
2018-08-31T20:15:57.186Z,11.15
2018-08-31T20:21:01.321Z,10.88
2018-08-31T20:26:05.463Z,11.97
2018-08-31T20:31:09.706Z,11.63
2018-08-31T20:36:13.888Z,11.15
2018-08-31T20:41:17.952Z,11.57
2018-08-31T20:46:22.086Z,11.10
2018-08-31T20:51:26.983Z,10.93
2018-08-31T20:56:31.187Z,9.80
2018-08-31T21:01:35.482Z,10.08
2018-08-31T21:06:39.676Z,9.90
2018-08-31T21:11:43.756Z,9.75
2018-08-31T21:16:47.834Z,9.58
2018-08-31T21:21:52.092Z,10.85
2018-08-31T21:26:56.291Z,12.05
2018-08-31T21:32:00.470Z,11.60
2018-08-31T21:37:04.614Z,10.72
2018-08-31T21:42:08.826Z,11.70
2018-08-31T21:47:12.778Z,13.58
2018-08-31T21:52:17.009Z,13.08
2018-08-31T21:57:21.111Z,13.48
2018-08-31T22:02:25.221Z,13.32
2018-08-31T22:07:29.557Z,12.07
2018-08-31T22:12:33.764Z,11.35
2018-08-31T22:17:37.894Z,10.48
2018-08-31T22:22:42.607Z,10.35
2018-08-31T22:27:46.886Z,12.28
2018-08-31T22:32:50.947Z,11.50
2018-08-31T22:37:55.127Z,11.18
2018-08-31T22:43:00.226Z,11.28
2018-08-31T22:48:04.445Z,10.82
2018-08-31T22:53:08.587Z,11.12
2018-08-31T22:58:12.760Z,11.45
2018-08-31T23:03:17.699Z,11.53
2018-08-31T23:08:21.788Z,11.35
2018-08-31T23:13:26.938Z,11.35
2018-08-31T23:18:31.024Z,11.50
2018-08-31T23:23:40.937Z,12.35
2018-08-31T23:28:45.117Z,11.85
2018-08-31T23:33:49.271Z,11.55
2018-08-31T23:38:53.446Z,12.15
2018-08-31T23:43:57.556Z,11.65
2018-08-31T23:49:01.642Z,11.83
2018-08-31T23:54:05.773Z,12.25
2018-08-31T23:59:09.887Z,12.85
